Time;durP1;ratioP1;P1;durP2;ratioP2;P2;SDS_P1;SDS_P2;PMS_P1;PMS_P2;Temp;Humidity;BMP_temperature;BMP_pressure;BME280_temperature;BME280_humidity;BME280_pressure;Samples;Min_cycle;Max_cycle;Signal;HPM_P1;HPM_P2
2021/11/26 00:00:09;;;;;;;4.25;1.98;;;3.00;99.90;;;;;;5019875;28;20060;-53
2021/11/26 00:02:36;;;;;;;4.90;2.03;;;2.90;99.90;;;;;;5019315;28;20164;-55
2021/11/26 00:05:04;;;;;;;4.60;2.70;;;2.90;99.90;;;;;;5019332;28;20053;-54
2021/11/26 00:07:31;;;;;;;5.40;2.25;;;2.90;99.90;;;;;;5021470;28;20534;-54
2021/11/26 00:09:57;;;;;;;4.13;2.28;;;2.80;99.90;;;;;;5020625;28;20578;-52
2021/11/26 00:12:24;;;;;;;4.47;2.17;;;2.80;99.90;;;;;;5020516;28;20088;-54
2021/11/26 00:17:27;;;;;;;3.47;1.38;;;2.70;99.90;;;;;;5021244;28;20111;-51
2021/11/26 00:19:53;;;;;;;3.35;1.90;;;2.70;99.90;;;;;;5020820;28;20089;-53
2021/11/26 00:22:20;;;;;;;5.13;1.80;;;2.70;99.90;;;;;;5022047;28;20080;-54
2021/11/26 00:24:49;;;;;;;4.15;1.67;;;2.70;99.90;;;;;;5023164;28;20419;-53
2021/11/26 00:27:15;;;;;;;3.75;2.03;;;2.70;99.90;;;;;;5024758;28;20081;-53
2021/11/26 00:29:42;;;;;;;5.45;1.98;;;2.60;99.90;;;;;;5023311;28;20125;-49
2021/11/26 00:32:09;;;;;;;4.90;1.65;;;2.60;99.90;;;;;;5025547;28;20152;-52
2021/11/26 00:34:36;;;;;;;3.88;2.10;;;2.60;99.90;;;;;;5024621;28;20049;-52
2021/11/26 00:37:03;;;;;;;3.53;1.75;;;2.60;99.90;;;;;;5025085;28;20137;-51
2021/11/26 00:39:29;;;;;;;2.22;1.42;;;2.60;99.90;;;;;;5023883;28;20093;-52
2021/11/26 00:41:56;;;;;;;5.70;2.38;;;2.70;99.90;;;;;;5025247;28;20132;-54
2021/11/26 00:44:23;;;;;;;3.90;2.13;;;2.70;99.90;;;;;;5022895;28;20502;-54
2021/11/26 00:46:50;;;;;;;3.92;1.83;;;2.70;99.90;;;;;;5023756;28;20084;-53
2021/11/26 00:49:17;;;;;;;5.40;2.13;;;2.70;99.90;;;;;;5023747;28;20045;-53
2021/11/26 00:51:43;;;;;;;3.90;1.70;;;2.70;99.90;;;;;;5025335;28;20089;-51
2021/11/26 00:54:10;;;;;;;3.83;1.95;;;2.80;99.90;;;;;;5023044;28;20246;-52
2021/11/26 00:56:37;;;;;;;5.15;2.17;;;2.80;99.90;;;;;;5023230;28;20107;-54
2021/11/26 00:59:04;;;;;;;4.65;2.17;;;2.90;99.90;;;;;;5023041;28;20080;-53
2021/11/26 01:01:30;;;;;;;3.53;1.80;;;2.90;99.90;;;;;;5022206;28;20092;-54
2021/11/26 01:03:57;;;;;;;4.00;2.17;;;3.00;99.90;;;;;;5023536;28;20053;-51
2021/11/26 01:06:24;;;;;;;4.85;2.17;;;3.00;99.90;;;;;;5025184;28;20124;-52
2021/11/26 01:08:51;;;;;;;5.30;1.80;;;3.10;99.90;;;;;;5025632;28;20049;-54
2021/11/26 01:11:18;;;;;;;3.85;1.88;;;3.10;99.90;;;;;;5027171;28;20076;-57
2021/11/26 01:13:44;;;;;;;5.40;1.80;;;3.10;99.90;;;;;;5026609;28;20103;-54
2021/11/26 01:16:11;;;;;;;7.40;2.10;;;3.20;99.90;;;;;;5023487;28;20532;-54
2021/11/26 01:18:38;;;;;;;4.03;2.08;;;3.20;99.90;;;;;;5024048;28;20125;-53
2021/11/26 01:21:06;;;;;;;3.33;1.80;;;3.20;99.90;;;;;;5023862;28;20061;-55
2021/11/26 01:23:35;;;;;;;5.57;2.15;;;3.20;99.90;;;;;;5026816;28;20049;-50
2021/11/26 01:26:02;;;;;;;4.80;1.77;;;3.20;99.90;;;;;;5026951;28;20460;-51
2021/11/26 01:28:29;;;;;;;3.92;1.98;;;3.20;99.80;;;;;;5026141;28;20084;-52
2021/11/26 01:30:55;;;;;;;5.65;1.83;;;3.20;99.80;;;;;;5025202;28;20401;-52
2021/11/26 01:33:22;;;;;;;5.55;1.80;;;3.20;99.90;;;;;;5026365;28;20125;-54
2021/11/26 01:35:54;;;;;;;4.95;1.77;;;3.20;99.80;;;;;;5026393;28;20072;-51
2021/11/26 01:38:21;;;;;;;4.45;1.70;;;3.20;99.80;;;;;;5026895;28;20176;-53
2021/11/26 01:40:48;;;;;;;2.28;1.20;;;3.20;99.70;;;;;;5025064;28;20363;-52
2021/11/26 01:43:16;;;;;;;6.85;2.00;;;3.20;99.70;;;;;;5024988;28;20072;-53
2021/11/26 01:45:48;;;;;;;4.53;1.60;;;3.20;99.60;;;;;;5025797;28;20152;-51
2021/11/26 01:48:14;;;;;;;2.78;1.50;;;3.20;99.60;;;;;;5025359;28;20470;-49
2021/11/26 01:50:41;;;;;;;2.35;1.20;;;3.20;99.50;;;;;;5026583;28;20132;-53
2021/11/26 01:53:08;;;;;;;2.78;1.10;;;3.20;99.50;;;;;;5026881;28;20081;-54
2021/11/26 01:55:35;;;;;;;2.72;1.20;;;3.20;99.50;;;;;;5026575;28;20489;-55
2021/11/26 01:58:02;;;;;;;4.40;1.85;;;3.30;99.40;;;;;;5027127;28;20111;-54
2021/11/26 02:00:30;;;;;;;5.28;1.52;;;3.30;99.30;;;;;;5025577;28;20097;-55
2021/11/26 02:02:57;;;;;;;3.17;1.35;;;3.30;99.20;;;;;;5026072;28;20049;-53
2021/11/26 02:05:24;;;;;;;3.47;1.40;;;3.30;99.10;;;;;;5025541;28;20529;-53
2021/11/26 02:07:51;;;;;;;3.17;1.00;;;3.40;99.10;;;;;;5026165;28;20609;-50
2021/11/26 02:10:18;;;;;;;2.65;1.20;;;3.40;99.10;;;;;;5025814;28;20280;-51
2021/11/26 02:12:44;;;;;;;2.42;1.08;;;3.40;99.10;;;;;;5025663;28;20085;-54
2021/11/26 02:15:21;;;;;;;2.17;1.25;;;3.40;99.00;;;;;;5025485;28;20485;-50
2021/11/26 02:17:49;;;;;;;2.20;1.10;;;3.50;99.00;;;;;;5025475;28;20077;-54
2021/11/26 02:20:17;;;;;;;3.90;1.13;;;3.60;98.90;;;;;;5025530;28;20444;-54
2021/11/26 02:22:44;;;;;;;3.75;1.35;;;3.60;98.80;;;;;;5025920;28;20081;-51
2021/11/26 02:25:11;;;;;;;4.05;1.27;;;3.70;98.80;;;;;;5026599;28;20041;-51
2021/11/26 02:27:38;;;;;;;3.50;1.20;;;3.70;98.70;;;;;;5025248;28;20056;-52
2021/11/26 02:30:13;;;;;;;2.30;1.70;;;3.80;98.70;;;;;;5024844;28;20466;-52
2021/11/26 02:32:40;;;;;;;2.50;1.73;;;3.80;98.60;;;;;;5016450;28;20076;-54
2021/11/26 02:35:08;;;;;;;2.28;1.02;;;3.90;98.50;;;;;;5026914;28;20088;-54
2021/11/26 02:37:36;;;;;;;1.65;0.88;;;3.90;98.40;;;;;;5027553;28;20549;-52
2021/11/26 02:40:03;;;;;;;4.47;1.20;;;4.00;98.40;;;;;;5027613;28;20046;-52
2021/11/26 02:42:30;;;;;;;4.32;1.13;;;4.00;98.30;;;;;;5026874;28;20077;-54
2021/11/26 02:44:57;;;;;;;2.53;1.10;;;4.10;98.30;;;;;;5026438;28;20093;-53
2021/11/26 02:47:24;;;;;;;2.95;1.10;;;4.10;98.40;;;;;;5023826;28;20046;-51
2021/11/26 02:49:50;;;;;;;3.17;1.30;;;4.20;98.30;;;;;;5026334;28;20089;-54
2021/11/26 02:52:17;;;;;;;3.35;1.13;;;4.20;98.30;;;;;;5026680;28;20248;-53
2021/11/26 02:54:44;;;;;;;2.38;1.20;;;4.20;98.30;;;;;;5026288;28;20077;-52
2021/11/26 02:57:10;;;;;;;3.72;1.38;;;4.20;98.40;;;;;;5025713;28;20500;-54
2021/11/26 02:59:38;;;;;;;2.75;0.98;;;4.20;98.50;;;;;;5024583;28;20093;-54
2021/11/26 03:02:05;;;;;;;3.22;0.90;;;4.20;98.40;;;;;;5026332;28;20077;-51
2021/11/26 03:04:31;;;;;;;5.82;1.55;;;4.30;98.50;;;;;;5025480;28;20357;-49
2021/11/26 03:07:04;;;;;;;3.13;1.15;;;4.30;98.50;;;;;;5026180;28;20124;-53
2021/11/26 03:09:31;;;;;;;6.55;1.20;;;4.30;98.60;;;;;;5026159;28;20136;-50
2021/11/26 03:11:59;;;;;;;3.08;1.15;;;4.40;98.60;;;;;;5025670;28;20061;-52
2021/11/26 03:14:26;;;;;;;3.97;1.10;;;4.40;98.50;;;;;;5024328;28;20445;-51
2021/11/26 03:16:52;;;;;;;4.70;1.38;;;4.40;98.60;;;;;;5024459;28;20123;-55
2021/11/26 03:19:19;;;;;;;2.72;1.17;;;4.40;98.70;;;;;;5024969;28;20068;-53
2021/11/26 03:21:46;;;;;;;2.75;1.40;;;4.40;98.70;;;;;;5024964;28;20152;-55
2021/11/26 03:24:13;;;;;;;5.50;1.35;;;4.50;98.70;;;;;;5026049;28;20192;-55
2021/11/26 03:26:40;;;;;;;2.53;1.20;;;4.50;98.70;;;;;;5025731;28;20500;-55
2021/11/26 03:29:06;;;;;;;3.20;1.33;;;4.50;98.70;;;;;;5007534;28;20096;-53
2021/11/26 03:31:33;;;;;;;4.60;1.55;;;4.60;98.80;;;;;;5024924;28;20049;-54
2021/11/26 03:34:00;;;;;;;3.08;1.05;;;4.60;98.80;;;;;;5025140;28;20045;-52
2021/11/26 03:36:27;;;;;;;2.80;1.05;;;4.60;98.70;;;;;;5025593;28;20123;-50
2021/11/26 03:38:53;;;;;;;3.78;1.02;;;4.70;98.80;;;;;;5024030;28;20077;-53
2021/11/26 03:41:20;;;;;;;3.10;1.10;;;4.70;98.70;;;;;;5022131;28;20455;-54
2021/11/26 03:43:47;;;;;;;2.20;1.05;;;4.70;98.90;;;;;;5023447;28;20570;-53
2021/11/26 03:46:16;;;;;;;4.57;1.20;;;4.70;98.80;;;;;;5022297;28;20537;-53
2021/11/26 03:48:43;;;;;;;4.45;1.65;;;4.80;98.80;;;;;;5025178;28;20046;-54
2021/11/26 03:51:10;;;;;;;3.75;1.42;;;4.90;98.80;;;;;;5025378;28;20088;-54
2021/11/26 03:53:37;;;;;;;3.72;1.13;;;5.00;98.80;;;;;;5024316;28;20076;-54
2021/11/26 03:56:04;;;;;;;3.45;1.23;;;5.00;98.70;;;;;;5025644;28;20538;-51
2021/11/26 03:58:30;;;;;;;8.07;1.38;;;5.10;98.70;;;;;;5028358;28;20453;-53
2021/11/26 04:00:57;;;;;;;3.17;1.20;;;5.10;98.70;;;;;;5028927;28;20132;-52
2021/11/26 04:03:24;;;;;;;3.45;1.20;;;5.10;98.70;;;;;;5027514;28;20531;-53
2021/11/26 04:05:51;;;;;;;2.42;1.08;;;5.20;98.70;;;;;;5029491;28;20168;-54
2021/11/26 04:08:18;;;;;;;3.50;1.20;;;5.20;98.70;;;;;;5029596;28;20037;-51
2021/11/26 04:10:44;;;;;;;4.20;1.23;;;5.20;98.70;;;;;;5029259;28;20125;-54
2021/11/26 04:13:13;;;;;;;3.58;1.45;;;5.20;98.70;;;;;;5028981;28;20046;-52
2021/11/26 04:15:40;;;;;;;4.72;1.40;;;5.20;98.80;;;;;;5028445;28;20442;-54
2021/11/26 04:18:07;;;;;;;4.80;1.67;;;5.30;98.80;;;;;;5028926;28;20081;-54
2021/11/26 04:20:34;;;;;;;2.28;1.02;;;5.30;98.80;;;;;;5027034;28;20160;-55
2021/11/26 04:23:01;;;;;;;3.95;1.17;;;5.30;98.70;;;;;;5028079;28;20041;-54
2021/11/26 04:25:28;;;;;;;6.40;1.55;;;5.30;98.80;;;;;;5024853;28;20132;-54
2021/11/26 04:27:55;;;;;;;2.85;1.02;;;5.30;98.80;;;;;;5025609;28;20050;-55
2021/11/26 04:30:23;;;;;;;7.75;1.70;;;5.30;98.80;;;;;;5027801;28;20578;-52
2021/11/26 04:32:50;;;;;;;5.80;2.42;;;5.30;98.80;;;;;;5028631;28;20702;-53
2021/11/26 04:35:17;;;;;;;6.22;1.77;;;5.30;98.90;;;;;;5028875;28;20627;-53
2021/11/26 04:37:44;;;;;;;4.65;1.60;;;5.30;99.30;;;;;;5029585;28;20084;-54
2021/11/26 04:40:13;;;;;;;4.93;1.80;;;5.30;99.00;;;;;;5029491;28;20526;-55
2021/11/26 04:42:41;;;;;;;4.10;1.75;;;5.30;99.00;;;;;;5028589;28;20088;-52
2021/11/26 04:45:08;;;;;;;5.20;1.70;;;5.30;98.70;;;;;;5027440;28;20095;-53
2021/11/26 04:47:36;;;;;;;4.45;1.50;;;5.30;98.80;;;;;;5028381;28;20132;-54
2021/11/26 04:50:04;;;;;;;5.10;1.50;;;5.30;98.70;;;;;;5028685;28;20488;-54
2021/11/26 04:52:30;;;;;;;6.28;2.85;;;5.40;98.70;;;;;;5011078;28;20128;-54
2021/11/26 04:54:57;;;;;;;3.92;1.48;;;5.40;98.60;;;;;;5028266;28;20104;-55
2021/11/26 04:57:24;;;;;;;5.72;1.40;;;5.40;98.60;;;;;;5028365;28;20144;-49
2021/11/26 04:59:51;;;;;;;4.00;1.70;;;5.40;98.40;;;;;;5026225;28;20598;-54
2021/11/26 05:02:18;;;;;;;4.20;1.35;;;5.40;98.40;;;;;;5028105;28;20089;-54
2021/11/26 05:04:44;;;;;;;4.13;1.15;;;5.40;98.30;;;;;;5028482;28;20118;-54
2021/11/26 05:07:13;;;;;;;3.33;1.73;;;5.40;98.40;;;;;;5028071;28;20088;-53
2021/11/26 05:09:41;;;;;;;4.78;1.50;;;5.40;98.30;;;;;;5025098;28;20049;-54
2021/11/26 05:12:08;;;;;;;3.55;1.30;;;5.40;98.30;;;;;;5027980;28;20529;-52
2021/11/26 05:14:35;;;;;;;4.82;1.52;;;5.50;98.30;;;;;;5027321;28;20080;-54
2021/11/26 05:17:01;;;;;;;5.05;1.42;;;5.50;98.30;;;;;;5026391;28;20081;-54
2021/11/26 05:19:28;;;;;;;6.00;1.35;;;5.50;98.30;;;;;;5027035;28;20144;-53
2021/11/26 05:21:55;;;;;;;4.65;1.45;;;5.50;98.30;;;;;;5028230;28;20114;-54
2021/11/26 05:24:22;;;;;;;3.50;1.38;;;5.50;98.40;;;;;;5027953;28;20136;-53
2021/11/26 05:26:48;;;;;;;2.05;1.10;;;5.50;98.60;;;;;;5027882;28;20409;-55
2021/11/26 05:29:15;;;;;;;4.22;1.60;;;5.50;98.60;;;;;;5026175;28;20140;-53
2021/11/26 05:31:42;;;;;;;4.28;1.08;;;5.40;98.70;;;;;;5028564;28;20072;-53
2021/11/26 05:34:09;;;;;;;3.47;1.08;;;5.40;98.90;;;;;;5026528;28;20085;-54
2021/11/26 05:36:35;;;;;;;3.60;1.25;;;5.40;98.80;;;;;;5027807;28;20112;-55
2021/11/26 05:39:03;;;;;;;2.33;1.40;;;5.30;99.00;;;;;;5025950;28;20505;-51
2021/11/26 05:41:30;;;;;;;3.03;1.30;;;5.30;99.20;;;;;;5027756;28;20089;-55
2021/11/26 05:43:57;;;;;;;2.55;1.08;;;5.30;99.20;;;;;;5026960;28;20116;-53
2021/11/26 05:46:24;;;;;;;3.38;1.20;;;5.30;99.30;;;;;;5026508;28;20752;-51
2021/11/26 05:48:50;;;;;;;3.20;1.30;;;5.20;99.40;;;;;;5015679;28;20121;-54
2021/11/26 05:51:17;;;;;;;3.55;1.10;;;5.20;99.50;;;;;;5006304;28;20100;-54
2021/11/26 05:53:44;;;;;;;4.20;1.30;;;5.20;99.60;;;;;;5005591;28;20141;-55
2021/11/26 05:56:11;;;;;;;3.00;0.93;;;5.20;99.60;;;;;;5015253;28;20516;-53
2021/11/26 05:58:37;;;;;;;2.75;1.25;;;5.20;99.60;;;;;;5024552;28;20089;-54
2021/11/26 06:01:04;;;;;;;4.93;1.83;;;5.20;99.80;;;;;;5024169;28;20137;-55
2021/11/26 06:03:31;;;;;;;5.85;1.42;;;5.20;99.70;;;;;;5021618;28;20071;-53
2021/11/26 06:05:58;;;;;;;6.38;1.50;;;5.10;99.90;;;;;;5022876;28;20099;-52
2021/11/26 06:08:24;;;;;;;4.05;1.40;;;5.10;99.90;;;;;;5022561;28;20129;-52
2021/11/26 06:10:51;;;;;;;4.05;1.10;;;5.10;99.90;;;;;;5022592;28;20107;-54
2021/11/26 06:13:18;;;;;;;3.70;1.70;;;5.10;99.90;;;;;;5021747;28;20069;-52
2021/11/26 06:15:45;;;;;;;3.60;1.20;;;5.10;99.90;;;;;;5019278;28;20041;-54
2021/11/26 06:18:12;;;;;;;4.85;1.52;;;5.10;99.90;;;;;;5022731;28;20126;-49
2021/11/26 06:20:39;;;;;;;5.47;1.77;;;5.10;99.90;;;;;;5018266;28;20045;-57
2021/11/26 06:23:06;;;;;;;6.05;3.10;;;5.10;99.90;;;;;;5016672;28;20111;-55
2021/11/26 06:25:33;;;;;;;4.45;1.48;;;5.10;99.90;;;;;;5017973;28;20592;-54
2021/11/26 06:27:59;;;;;;;3.95;1.20;;;5.20;99.90;;;;;;5015890;28;20128;-54
2021/11/26 06:30:26;;;;;;;4.65;1.50;;;5.20;99.90;;;;;;5017015;28;20041;-52
2021/11/26 06:32:53;;;;;;;3.85;1.48;;;5.20;99.90;;;;;;5017814;28;20124;-53
2021/11/26 06:35:21;;;;;;;4.68;1.67;;;5.20;99.90;;;;;;4994245;28;20568;-53
2021/11/26 06:37:48;;;;;;;5.25;1.83;;;5.20;99.90;;;;;;5017929;28;20492;-51
2021/11/26 06:40:15;;;;;;;2.85;1.30;;;5.20;99.90;;;;;;5017525;28;20111;-52
2021/11/26 06:42:42;;;;;;;5.22;1.38;;;5.20;99.90;;;;;;5016198;28;20451;-49
2021/11/26 06:45:09;;;;;;;4.35;1.60;;;5.20;99.90;;;;;;5014534;28;20152;-51
2021/11/26 06:47:36;;;;;;;3.63;1.38;;;5.20;99.90;;;;;;5015929;28;21146;-53
2021/11/26 06:50:04;;;;;;;3.13;1.30;;;5.20;99.90;;;;;;5017813;28;20121;-53
2021/11/26 06:52:31;;;;;;;3.60;1.05;;;5.20;99.90;;;;;;5017683;28;20435;-52
2021/11/26 06:54:58;;;;;;;4.15;1.40;;;5.20;99.90;;;;;;5017911;28;20053;-52
2021/11/26 06:57:25;;;;;;;2.97;1.52;;;5.20;99.90;;;;;;5017856;28;20768;-51
2021/11/26 06:59:53;;;;;;;4.75;1.55;;;5.20;99.90;;;;;;5016055;28;20184;-54
2021/11/26 07:02:21;;;;;;;5.47;1.70;;;5.30;99.90;;;;;;5017327;28;20081;-52
2021/11/26 07:04:48;;;;;;;3.83;1.40;;;5.30;99.90;;;;;;5015987;28;20128;-52
2021/11/26 07:07:14;;;;;;;4.32;1.23;;;5.40;99.90;;;;;;5016481;28;20092;-53
2021/11/26 07:09:42;;;;;;;4.53;1.35;;;5.40;99.90;;;;;;5018246;28;20343;-52
2021/11/26 07:12:10;;;;;;;3.25;1.30;;;5.40;99.90;;;;;;5014744;28;20093;-54
2021/11/26 07:14:41;;;;;;;3.03;1.30;;;5.40;99.90;;;;;;5015944;28;20061;-55
2021/11/26 07:17:08;;;;;;;3.50;1.33;;;5.40;99.90;;;;;;5016978;28;20127;-55
2021/11/26 07:19:37;;;;;;;4.40;1.55;;;5.40;99.90;;;;;;5016865;28;20054;-54
2021/11/26 07:22:04;;;;;;;4.38;1.30;;;5.40;99.90;;;;;;5017096;28;20073;-51
2021/11/26 07:24:30;;;;;;;2.92;1.27;;;5.40;99.90;;;;;;5017468;28;20140;-54
2021/11/26 07:26:57;;;;;;;3.38;1.20;;;5.40;99.90;;;;;;5018011;28;20659;-53
2021/11/26 07:29:24;;;;;;;3.88;1.33;;;5.50;99.90;;;;;;5015066;28;20140;-53
2021/11/26 07:31:50;;;;;;;3.40;1.33;;;5.50;99.90;;;;;;5015319;28;20085;-55
2021/11/26 07:34:17;;;;;;;3.55;1.10;;;5.50;99.90;;;;;;5016445;28;20384;-55
2021/11/26 07:36:44;;;;;;;4.72;1.35;;;5.50;99.90;;;;;;5017923;28;20136;-54
2021/11/26 07:39:11;;;;;;;1.63;1.05;;;5.60;99.90;;;;;;5016337;28;20085;-55
2021/11/26 07:41:37;;;;;;;3.53;1.10;;;5.60;99.90;;;;;;5017713;28;20128;-53
2021/11/26 07:44:05;;;;;;;4.63;1.38;;;5.70;99.90;;;;;;5018019;28;20140;-51
2021/11/26 07:46:32;;;;;;;4.53;1.23;;;5.70;99.90;;;;;;5017557;28;20132;-54
2021/11/26 07:48:59;;;;;;;2.80;1.17;;;5.70;99.90;;;;;;5018104;28;20136;-55
2021/11/26 07:51:28;;;;;;;3.75;1.10;;;5.80;99.90;;;;;;5017131;28;20136;-54
2021/11/26 07:53:56;;;;;;;3.10;1.38;;;5.80;99.90;;;;;;5016608;28;20093;-55
2021/11/26 07:56:23;;;;;;;2.17;1.00;;;5.90;99.90;;;;;;5017757;28;20136;-54
2021/11/26 07:58:50;;;;;;;3.15;1.20;;;6.00;99.90;;;;;;5017823;28;20168;-53
2021/11/26 08:01:16;;;;;;;4.40;1.35;;;6.00;99.90;;;;;;5017507;28;20155;-55
2021/11/26 08:03:43;;;;;;;3.03;1.30;;;6.00;99.90;;;;;;5017571;28;20468;-53
2021/11/26 08:06:10;;;;;;;2.83;1.05;;;6.10;99.90;;;;;;5017298;28;20084;-50
2021/11/26 08:08:37;;;;;;;3.33;1.13;;;6.10;99.90;;;;;;5016114;28;20134;-55
2021/11/26 08:11:03;;;;;;;3.55;0.98;;;6.10;99.90;;;;;;5017758;28;20089;-53
2021/11/26 08:13:30;;;;;;;2.20;0.85;;;6.20;99.90;;;;;;5017299;28;20064;-53
2021/11/26 08:15:57;;;;;;;4.63;2.08;;;6.20;99.90;;;;;;5016508;28;20164;-51
2021/11/26 08:18:24;;;;;;;3.30;1.40;;;6.30;99.90;;;;;;5015635;28;20050;-52
2021/11/26 08:20:50;;;;;;;3.50;1.45;;;6.30;99.90;;;;;;5015786;28;20136;-52
2021/11/26 08:23:17;;;;;;;2.67;1.70;;;6.40;99.90;;;;;;5017509;28;20105;-55
2021/11/26 08:25:44;;;;;;;2.85;1.52;;;6.40;99.90;;;;;;5016554;28;20089;-52
2021/11/26 08:28:11;;;;;;;4.82;1.45;;;6.50;99.90;;;;;;5016135;28;20085;-52
2021/11/26 08:30:37;;;;;;;6.75;1.83;;;6.60;99.90;;;;;;5016997;28;20481;-56
2021/11/26 08:33:06;;;;;;;3.95;1.55;;;6.60;99.90;;;;;;5017068;28;20220;-54
2021/11/26 08:35:33;;;;;;;6.03;2.08;;;6.60;99.90;;;;;;5017166;28;20060;-52
2021/11/26 08:38:00;;;;;;;3.17;1.52;;;6.70;99.90;;;;;;5017110;28;20080;-54
2021/11/26 08:40:27;;;;;;;3.83;1.50;;;6.70;99.90;;;;;;5016462;28;20114;-54
2021/11/26 08:42:54;;;;;;;3.10;1.52;;;6.80;99.90;;;;;;5016950;28;20600;-55
2021/11/26 08:45:25;;;;;;;4.05;1.40;;;6.80;99.90;;;;;;5019302;28;20576;-55
2021/11/26 08:47:52;;;;;;;3.97;1.25;;;6.80;99.90;;;;;;5019235;28;20052;-53
2021/11/26 08:50:20;;;;;;;3.75;1.15;;;6.70;99.90;;;;;;5019476;28;20311;-53
2021/11/26 08:52:47;;;;;;;3.75;1.45;;;6.60;99.90;;;;;;5020289;28;20085;-55
2021/11/26 08:55:16;;;;;;;5.25;0.93;;;6.70;99.90;;;;;;5019043;28;20136;-54
2021/11/26 08:57:50;;;;;;;6.68;1.30;;;6.60;99.90;;;;;;5020729;28;20073;-56
2021/11/26 09:00:18;;;;;;;4.43;1.40;;;6.60;99.90;;;;;;5017550;28;20150;-55
2021/11/26 09:02:45;;;;;;;6.25;1.23;;;6.60;99.90;;;;;;5020417;28;20505;-55
2021/11/26 09:05:13;;;;;;;5.85;1.73;;;6.60;99.90;;;;;;5020207;28;20559;-56
2021/11/26 09:07:41;;;;;;;4.35;1.77;;;6.60;99.90;;;;;;5020854;28;20084;-55
2021/11/26 09:10:07;;;;;;;3.53;1.25;;;6.60;99.90;;;;;;5020630;28;20109;-51
2021/11/26 09:12:34;;;;;;;2.38;0.93;;;6.70;99.90;;;;;;5015884;28;20140;-54
2021/11/26 09:15:01;;;;;;;3.47;0.98;;;6.70;99.90;;;;;;5020019;28;20583;-54
2021/11/26 09:17:28;;;;;;;3.70;1.15;;;6.70;99.90;;;;;;5018145;28;20084;-51
2021/11/26 09:19:54;;;;;;;5.75;1.33;;;6.80;99.90;;;;;;5020323;28;20626;-52
2021/11/26 09:22:21;;;;;;;3.92;1.20;;;6.90;99.90;;;;;;5019832;28;20137;-54
2021/11/26 09:24:48;;;;;;;5.43;1.40;;;7.00;99.90;;;;;;5002004;28;20148;-55
2021/11/26 09:27:14;;;;;;;4.57;1.20;;;7.20;99.90;;;;;;4996497;28;20139;-55
2021/11/26 09:29:45;;;;;;;4.45;1.30;;;7.30;99.90;;;;;;5015969;28;20046;-51
2021/11/26 09:32:12;;;;;;;5.22;1.40;;;7.30;99.90;;;;;;5018556;28;20192;-55
2021/11/26 09:34:39;;;;;;;3.63;1.27;;;7.20;99.90;;;;;;5019653;28;20116;-51
2021/11/26 09:37:06;;;;;;;4.90;1.30;;;7.20;99.90;;;;;;5019133;28;20488;-54
2021/11/26 09:39:33;;;;;;;5.72;1.75;;;7.20;99.90;;;;;;5017567;28;20050;-55
2021/11/26 09:42:04;;;;;;;4.05;1.52;;;7.20;99.90;;;;;;5017106;28;20042;-54
2021/11/26 09:44:34;;;;;;;6.13;1.48;;;7.20;99.90;;;;;;5018405;28;20072;-54
2021/11/26 09:47:02;;;;;;;3.83;2.03;;;7.20;99.90;;;;;;5018958;28;20335;-52
2021/11/26 09:49:29;;;;;;;5.47;1.40;;;7.20;99.90;;;;;;5016992;28;20172;-53
2021/11/26 09:51:56;;;;;;;5.18;1.67;;;7.20;99.90;;;;;;5017008;28;20128;-54
2021/11/26 09:54:23;;;;;;;3.97;1.45;;;7.20;99.90;;;;;;5018251;28;20564;-55
2021/11/26 09:56:50;;;;;;;6.30;2.28;;;7.30;99.90;;;;;;5018444;28;20073;-54
2021/11/26 09:59:18;;;;;;;4.18;1.80;;;7.20;99.90;;;;;;5018331;28;20559;-53
2021/11/26 10:01:45;;;;;;;4.65;1.60;;;7.20;99.90;;;;;;5019327;28;20072;-52
2021/11/26 10:04:16;;;;;;;4.25;1.70;;;7.30;99.90;;;;;;5018118;28;20049;-55
2021/11/26 10:06:44;;;;;;;2.55;1.40;;;7.20;99.90;;;;;;5018877;28;20081;-53
2021/11/26 10:09:24;;;;;;;6.53;2.53;;;7.20;99.90;;;;;;5018878;28;20107;-53
2021/11/26 10:11:58;;;;;;;4.55;1.48;;;7.20;99.90;;;;;;5018936;28;20088;-54
2021/11/26 10:14:33;;;;;;;5.03;1.75;;;7.20;99.90;;;;;;5012165;28;20353;-53
2021/11/26 10:17:14;;;;;;;3.30;1.30;;;7.20;99.90;;;;;;5015421;28;20053;-55
2021/11/26 10:19:46;;;;;;;3.90;1.40;;;7.30;99.90;;;;;;5010654;28;20053;-55
2021/11/26 10:22:24;;;;;;;2.78;1.17;;;7.30;99.90;;;;;;5015936;28;20068;-55
2021/11/26 10:25:17;;;;;;;3.00;1.40;;;7.40;99.90;;;;;;5007319;28;20052;-55
2021/11/26 10:27:48;;;;;;;5.60;1.63;;;7.40;99.90;;;;;;5013345;28;20448;-54
2021/11/26 10:30:25;;;;;;;3.40;1.35;;;7.50;99.90;;;;;;5018529;28;20542;-52
2021/11/26 10:33:12;;;;;;;5.22;1.60;;;7.60;99.90;;;;;;5017834;28;20296;-52
2021/11/26 10:35:41;;;;;;;3.95;1.45;;;7.70;99.90;;;;;;5011468;28;20419;-54
2021/11/26 10:38:13;;;;;;;4.35;1.33;;;7.70;99.90;;;;;;5019064;28;20077;-52
2021/11/26 10:40:46;;;;;;;3.67;2.17;;;7.70;99.90;;;;;;5017284;28;20465;-55
2021/11/26 10:43:20;;;;;;;3.17;1.75;;;7.60;99.90;;;;;;5016859;28;20057;-52
2021/11/26 10:48:44;;;;;;;3.30;2.03;;;7.60;99.90;;;;;;5014898;28;20149;-52
2021/11/26 10:57:22;;;;;;;4.65;2.22;;;7.70;99.90;;;;;;4980756;28;20144;-53
2021/11/26 10:59:40;;;;;;;5.38;1.88;;;7.90;99.90;;;;;;4981573;28;20081;-54
2021/11/26 11:02:08;;;;;;;8.88;2.55;;;8.10;99.90;;;;;;5001049;28;20093;-54
2021/11/26 11:04:36;;;;;;;5.45;1.83;;;8.20;99.90;;;;;;5014912;28;20057;-53
2021/11/26 11:07:03;;;;;;;4.15;1.88;;;8.40;99.90;;;;;;5016380;28;20140;-55
2021/11/26 11:09:43;;;;;;;6.97;2.55;;;8.40;99.90;;;;;;5016466;28;20204;-54
2021/11/26 11:12:10;;;;;;;5.40;1.75;;;8.40;99.90;;;;;;5017995;28;20608;-54
2021/11/26 11:14:38;;;;;;;4.22;2.15;;;8.50;99.90;;;;;;5013411;28;20091;-53
2021/11/26 11:17:05;;;;;;;3.08;1.80;;;8.80;99.90;;;;;;5017247;28;20318;-56
2021/11/26 11:19:32;;;;;;;3.60;2.03;;;8.90;99.90;;;;;;5014194;28;20140;-54
2021/11/26 11:21:58;;;;;;;5.25;2.20;;;8.90;99.90;;;;;;5015828;28;20559;-54
2021/11/26 11:24:26;;;;;;;5.10;1.80;;;8.90;99.90;;;;;;5016942;28;20099;-54
2021/11/26 11:26:53;;;;;;;3.53;1.63;;;9.00;99.90;;;;;;5015175;28;20049;-54
2021/11/26 11:29:25;;;;;;;5.45;2.15;;;9.00;99.90;;;;;;5015336;28;20145;-54
2021/11/26 11:31:53;;;;;;;6.55;2.95;;;9.10;99.90;;;;;;5018046;28;20085;-50
2021/11/26 11:34:25;;;;;;;4.18;1.52;;;9.20;99.90;;;;;;5017206;28;20214;-54
2021/11/26 11:36:54;;;;;;;3.72;1.15;;;9.10;99.90;;;;;;5017731;28;20124;-55
2021/11/26 11:39:21;;;;;;;4.38;1.73;;;9.10;99.90;;;;;;5016577;28;20103;-55
2021/11/26 11:41:56;;;;;;;5.15;1.50;;;9.10;99.90;;;;;;5017968;28;20378;-54
2021/11/26 11:44:29;;;;;;;3.83;1.45;;;9.20;99.90;;;;;;5014872;28;20139;-54
2021/11/26 11:46:57;;;;;;;4.78;1.95;;;9.30;99.90;;;;;;5017654;28;20765;-54
2021/11/26 11:49:31;;;;;;;4.32;1.60;;;9.30;99.90;;;;;;5014810;28;20076;-53
2021/11/26 11:52:03;;;;;;;3.22;1.10;;;9.20;99.90;;;;;;5018721;28;20045;-54
2021/11/26 11:54:47;;;;;;;3.47;1.80;;;9.30;99.90;;;;;;5018564;28;20225;-55
2021/11/26 11:57:22;;;;;;;2.88;1.25;;;9.30;99.90;;;;;;5017484;28;20136;-54
2021/11/26 11:59:50;;;;;;;4.80;1.30;;;9.30;99.90;;;;;;5016517;28;20101;-54
2021/11/26 12:02:25;;;;;;;3.15;1.50;;;9.20;99.90;;;;;;5016435;28;20127;-52
2021/11/26 12:04:54;;;;;;;5.07;2.47;;;9.20;99.90;;;;;;5015772;28;20045;-53
2021/11/26 12:07:25;;;;;;;2.30;1.00;;;9.30;99.90;;;;;;5016950;28;20123;-55
2021/11/26 12:10:02;;;;;;;3.67;1.33;;;9.50;99.80;;;;;;5017235;28;20103;-53
2021/11/26 12:12:29;;;;;;;1.30;1.00;;;9.90;99.20;;;;;;5016349;28;20049;-51
2021/11/26 12:14:57;;;;;;;1.55;1.02;;;10.20;97.90;;;;;;5016244;28;20128;-54
2021/11/26 12:17:35;;;;;;;2.80;0.90;;;10.40;96.10;;;;;;5015400;28;20501;-53
2021/11/26 12:20:11;;;;;;;1.88;0.98;;;10.50;96.10;;;;;;5020929;28;20126;-55
2021/11/26 12:22:46;;;;;;;2.38;1.05;;;10.60;95.20;;;;;;5021443;28;20155;-55
2021/11/26 12:28:23;;;;;;;2.67;1.02;;;10.20;95.00;;;;;;5010670;28;20459;-56
2021/11/26 12:31:06;;;;;;;2.10;0.75;;;10.00;95.30;;;;;;5009226;28;20528;-56
2021/11/26 12:33:33;;;;;;;2.08;1.00;;;9.70;95.20;;;;;;5020918;28;20136;-55
2021/11/26 12:36:10;;;;;;;3.30;1.02;;;9.70;95.90;;;;;;5020140;28;20080;-55
2021/11/26 12:38:40;;;;;;;2.92;1.00;;;9.60;96.00;;;;;;5021024;28;20098;-55
2021/11/26 12:41:08;;;;;;;1.73;0.93;;;9.60;96.10;;;;;;5020970;28;20049;-54
2021/11/26 12:43:46;;;;;;;3.25;1.02;;;9.60;96.60;;;;;;5020148;28;20077;-55
2021/11/26 12:46:27;;;;;;;2.25;0.75;;;9.50;96.30;;;;;;5019771;28;20248;-52
2021/11/26 12:49:28;;;;;;;1.63;0.80;;;9.50;96.30;;;;;;5017164;28;20507;-54
2021/11/26 12:52:02;;;;;;;2.95;1.15;;;9.50;96.30;;;;;;5020514;28;20076;-52
2021/11/26 12:54:34;;;;;;;2.58;0.88;;;9.50;96.10;;;;;;5019976;28;20150;-56
2021/11/26 12:57:09;;;;;;;3.25;1.23;;;9.70;95.60;;;;;;5021193;28;20140;-56
2021/11/26 12:59:47;;;;;;;2.13;1.00;;;10.00;95.10;;;;;;5020007;28;20057;-56
2021/11/26 13:02:28;;;;;;;4.10;0.98;;;10.20;94.40;;;;;;5010590;28;20164;-56
2021/11/26 13:04:57;;;;;;;1.38;0.70;;;10.20;94.60;;;;;;5015704;28;20408;-55
2021/11/26 13:07:28;;;;;;;1.92;0.65;;;10.40;94.50;;;;;;5021028;28;20465;-55
2021/11/26 13:09:59;;;;;;;1.98;0.90;;;10.30;94.30;;;;;;5021087;28;20497;-56
2021/11/26 13:12:31;;;;;;;2.13;1.23;;;10.20;94.10;;;;;;5020274;28;20053;-54
2021/11/26 13:14:59;;;;;;;2.22;0.95;;;9.90;94.20;;;;;;5018612;28;20144;-55
2021/11/26 13:17:53;;;;;;;3.20;0.90;;;9.70;94.90;;;;;;5018934;28;20556;-54